Fremont, MI

9:41 PM EDT on July 25, 2017 (GMT -0400)
Fremont

Weather History for KFFX - December, 2013

Change the Weather History Date:

Friday, December 6, 2013

  Actual Average (KMKG) Record (KMKG)
Temperature  
Mean Temperature 21 °F -  
Max Temperature 24 °F 37 °F 63 °F (1951)
Min Temperature 18 °F 25 °F 8 °F (1972)
Degree Days  
Heating Degree Days 44    
Moisture  
Dew Point 13 °F    
Average Humidity 74    
Maximum Humidity 86    
Minimum Humidity 67    
Precipitation  
Precipitation 0.00 in - - ()
Sea Level Pressure  
Sea Level Pressure 30.28 in    
Wind  
Wind Speed 10 mph (WNW)    
Max Wind Speed 16 mph    
Max Gust Speed 23 mph    
Visibility 9 miles    
Events Snow    
Averages and records for this station are not official NWS values.
T = Trace of Precipitation, MM = Missing Value Source: NWS Daily Summary

Daily Weather History Graph

Daily Weather History Graph

Search for Another Location

Airport or City:

Trip Planner

Search our weather history database for the weather conditions in past years. The results will help you decide how hot, cold, wet, or windy it might be!

Date:

Astronomy

Dec. 06, 2013 Rise Set
Actual Time 8:02 AM EST 5:07 PM EST
Civil Twilight 7:29 AM EST 5:40 PM EST
Nautical Twilight 6:54 AM EST 6:16 PM EST
Astronomical Twilight 6:19 AM EST 6:50 PM EST
Moon 11:03 AM EST (12/6) 9:43 PM EST (12/6)
Length of Visible Light 10h 10m
Length of Day
9h 05m
Waxing Crescent, 19% of the Moon is Illuminated
Dec 6
Waxing Crescent
Dec 9
First Quarter
Dec 17
Full
Dec 25
Last Quarter
Jan 1
New

Hourly Weather History & Observations

Time (EST) Temp. Windchill Dew Point Humidity Pressure Visibility Wind Dir Wind Speed Gust Speed Precip Events Conditions
12:14 AM 24.1 °F 11.0 °F 15.6 °F 70% 30.15 in 10.0 mi West 16.1 mph 23.0 mph N/A   Overcast
12:35 AM 23.5 °F 11.3 °F 14.7 °F 69% 30.16 in 10.0 mi West 13.8 mph - N/A   Overcast
12:55 AM 23.2 °F 11.4 °F 14.4 °F 69% 30.18 in 10.0 mi West 12.7 mph 17.3 mph N/A   Overcast
1:15 AM 23.4 °F 16.2 °F 14.9 °F 70% 30.18 in 10.0 mi West 5.8 mph - N/A   Overcast
1:35 AM 23.0 °F 10.6 °F 14.2 °F 69% 30.17 in 10.0 mi West 13.8 mph - N/A   Overcast
1:55 AM 23.0 °F 12.4 °F 15.3 °F 72% 30.16 in 10.0 mi West 10.4 mph - N/A   Overcast
2:15 AM 22.1 °F 11.3 °F 13.6 °F 70% 30.17 in 10.0 mi WNW 10.4 mph - N/A   Overcast
2:35 AM 21.9 °F 10.4 °F 13.3 °F 69% 30.17 in 10.0 mi WNW 11.5 mph 16.1 mph N/A   Mostly Cloudy
2:55 AM 21.7 °F 9.6 °F 13.5 °F 70% 30.18 in 10.0 mi West 12.7 mph 17.3 mph N/A   Mostly Cloudy
3:10 AM 21.4 °F 8.5 °F 13.8 °F 73% 30.18 in 10.0 mi West 13.8 mph - N/A   Mostly Cloudy
3:30 AM 21.4 °F 10.4 °F 14.0 °F 73% 30.18 in 10.0 mi West 10.4 mph - N/A   Mostly Cloudy
3:50 AM 21.6 °F 13.0 °F 13.8 °F 72% 30.19 in 10.0 mi West 6.9 mph - N/A   Overcast
4:11 AM 21.2 °F 10.9 °F 13.5 °F 72% 30.20 in 10.0 mi WNW 9.2 mph - N/A   Overcast
4:31 AM 21.2 °F 8.3 °F 13.6 °F 73% 30.20 in 10.0 mi West 13.8 mph - N/A   Overcast
4:51 AM 20.8 °F 8.4 °F 12.7 °F 71% 30.20 in 10.0 mi West 12.7 mph 17.3 mph N/A   Overcast
5:11 AM 20.7 °F 9.5 °F 12.6 °F 71% 30.21 in 10.0 mi WNW 10.4 mph - N/A   Overcast
5:31 AM 20.3 °F 7.7 °F 12.6 °F 72% 30.21 in 10.0 mi WNW 12.7 mph 19.6 mph N/A Snow Light Snow
5:51 AM 20.3 °F 7.2 °F 11.8 °F 70% 30.22 in 10.0 mi West 13.8 mph - N/A   Overcast
6:11 AM 20.1 °F 6.9 °F 12.0 °F 71% 30.22 in 10.0 mi WNW 13.8 mph - N/A   Overcast
6:32 AM 19.9 °F 7.9 °F 12.2 °F 72% 30.22 in 10.0 mi WNW 11.5 mph - N/A   Overcast
6:52 AM 19.9 °F 9.3 °F 12.2 °F 72% 30.23 in 10.0 mi WNW 9.2 mph - N/A Snow Light Snow
7:12 AM 20.1 °F 11.3 °F 13.1 °F 74% 30.24 in 10.0 mi WNW 6.9 mph - N/A Snow Light Snow
7:32 AM 19.6 °F 8.1 °F 11.8 °F 72% 30.25 in 10.0 mi WNW 10.4 mph - N/A   Overcast
7:52 AM 19.4 °F 7.9 °F 11.8 °F 72% 30.25 in 10.0 mi West 10.4 mph - N/A Snow Light Snow
8:12 AM 19.4 °F 7.9 °F 12.2 °F 74% 30.25 in 10.0 mi WNW 10.4 mph - N/A Snow Light Snow
8:32 AM 19.4 °F 9.5 °F 12.7 °F 75% 30.25 in 10.0 mi NW 8.1 mph - N/A Snow Light Snow
8:52 AM 19.4 °F 7.2 °F 12.9 °F 76% 30.26 in 7.0 mi West 11.5 mph - N/A Snow Light Snow
9:12 AM 19.4 °F 8.6 °F 13.8 °F 79% 30.27 in 5.0 mi WNW 9.2 mph - N/A Snow Light Snow
9:32 AM 19.4 °F 9.5 °F 12.7 °F 75% 30.27 in 7.0 mi WNW 8.1 mph - N/A Snow Light Snow
9:52 AM 19.4 °F 9.5 °F 13.8 °F 79% 30.28 in 5.0 mi West 8.1 mph - N/A Snow Light Snow
10:13 AM 19.6 °F 9.7 °F 12.9 °F 75% 30.28 in 10.0 mi WNW 8.1 mph - N/A Snow Light Snow
10:33 AM 19.8 °F 8.3 °F 13.1 °F 75% 30.27 in 7.0 mi West 10.4 mph - N/A Snow Light Snow
10:53 AM 20.1 °F 10.3 °F 13.3 °F 75% 30.31 in 7.0 mi West 8.1 mph - N/A Snow Light Snow
11:13 AM 19.9 °F 11.1 °F 14.4 °F 79% 30.32 in 4.0 mi WNW 6.9 mph - N/A Snow Light Snow
11:33 AM 20.3 °F 10.6 °F 13.5 °F 75% 30.32 in 10.0 mi WNW 8.1 mph - N/A Snow Light Snow
11:53 AM 20.7 °F 13.0 °F 13.1 °F 73% 30.30 in 10.0 mi West 5.8 mph - N/A   Mostly Cloudy
12:13 PM 20.5 °F 11.7 °F 14.0 °F 76% 30.30 in 3.0 mi West 6.9 mph - N/A Snow Light Snow
12:34 PM 21.4 °F 11.9 °F 14.0 °F 73% 30.31 in 7.0 mi West 8.1 mph - N/A Snow Light Snow
12:54 PM 20.8 °F 12.1 °F 13.5 °F 73% 30.30 in 7.0 mi WNW 6.9 mph - N/A Snow Light Snow
1:14 PM 20.7 °F 9.5 °F 13.1 °F 73% 30.30 in 10.0 mi WNW 10.4 mph - N/A Snow Light Snow
1:34 PM 20.8 °F 11.2 °F 14.7 °F 77% 30.29 in 4.0 mi WNW 8.1 mph - N/A Snow Light Snow
1:54 PM 20.7 °F 10.2 °F 14.0 °F 75% 30.28 in 10.0 mi West 9.2 mph - N/A Snow Light Snow
2:14 PM 21.2 °F 10.9 °F 14.4 °F 75% 30.26 in 7.0 mi NW 9.2 mph - N/A Snow Light Snow
2:34 PM 21.2 °F 9.5 °F 13.5 °F 72% 30.26 in 10.0 mi NW 11.5 mph - N/A Snow Light Snow
2:54 PM 20.8 °F 10.4 °F 11.5 °F 67% 30.27 in 10.0 mi West 9.2 mph - N/A   Overcast
3:15 PM 20.7 °F 10.2 °F 11.1 °F 67% 30.28 in 10.0 mi WNW 9.2 mph - N/A   Overcast
3:35 PM 20.3 °F 10.6 °F 12.9 °F 73% 30.30 in 10.0 mi West 8.1 mph - N/A Snow Light Snow
3:55 PM 20.3 °F 11.5 °F 12.7 °F 73% 30.29 in 10.0 mi WNW 6.9 mph - N/A   Overcast
4:15 PM 20.3 °F 9.0 °F 11.1 °F 68% 30.30 in 10.0 mi West 10.4 mph - N/A   Overcast
4:30 PM 20.1 °F 11.3 °F 12.0 °F 71% 30.30 in 10.0 mi WNW 6.9 mph - N/A   Overcast
4:50 PM 20.1 °F 10.3 °F 11.8 °F 70% 30.30 in 10.0 mi West 8.1 mph - N/A   Overcast
5:10 PM 19.8 °F 10.8 °F 12.2 °F 72% 30.30 in 10.0 mi West 6.9 mph - N/A Snow Light Snow
5:30 PM 19.4 °F 9.5 °F 12.6 °F 75% 30.30 in 10.0 mi West 8.1 mph - N/A Snow Light Snow
5:51 PM 19.4 °F 10.4 °F 13.1 °F 76% 30.32 in 10.0 mi West 6.9 mph - N/A Snow Light Snow
6:11 PM 19.4 °F 11.5 °F 13.5 °F 78% 30.32 in 10.0 mi West 5.8 mph - N/A Snow Light Snow
6:31 PM 19.4 °F 10.4 °F 13.5 °F 78% 30.33 in 10.0 mi West 6.9 mph - N/A Snow Light Snow
6:51 PM 19.4 °F 12.8 °F 13.6 °F 78% 30.33 in 10.0 mi West 4.6 mph - N/A Snow Light Snow
7:11 PM 19.4 °F 11.5 °F 13.1 °F 76% 30.33 in 10.0 mi West 5.8 mph - N/A   Overcast
7:31 PM 19.8 °F 10.8 °F 13.3 °F 76% 30.34 in 10.0 mi West 6.9 mph - N/A   Overcast
7:51 PM 19.8 °F 10.8 °F 12.9 °F 75% 30.33 in 10.0 mi West 6.9 mph - N/A Snow Light Snow
8:11 PM 19.8 °F 9.9 °F 12.7 °F 74% 30.35 in 10.0 mi West 8.1 mph - N/A   Overcast
8:31 PM 19.9 °F 13.4 °F 12.7 °F 74% 30.35 in 10.0 mi West 4.6 mph - N/A Snow Light Snow
8:52 PM 19.9 °F 11.1 °F 11.7 °F 70% 30.36 in 10.0 mi West 6.9 mph - N/A   Overcast
9:12 PM 19.9 °F 12.1 °F 11.3 °F 69% 30.36 in 10.0 mi WSW 5.8 mph - N/A Snow Light Snow
9:32 PM 19.8 °F 10.8 °F 11.8 °F 71% 30.36 in 10.0 mi West 6.9 mph - N/A Snow Light Snow
9:52 PM 19.4 °F 9.5 °F 12.0 °F 73% 30.37 in 10.0 mi West 8.1 mph - N/A Snow Light Snow
10:12 PM 19.4 °F 7.9 °F 12.9 °F 76% 30.38 in 10.0 mi West 10.4 mph - N/A   Overcast
10:32 PM 19.4 °F 9.5 °F 11.8 °F 72% 30.38 in 10.0 mi West 8.1 mph - N/A Snow Light Snow
10:52 PM 19.0 °F 6.8 °F 13.6 °F 79% 30.38 in 4.0 mi West 11.5 mph - N/A Snow Light Snow
11:13 PM 18.3 °F 6.6 °F 14.5 °F 85% 30.39 in 3.0 mi West 10.4 mph - N/A Snow Light Snow
11:33 PM 18.3 °F 9.1 °F 14.7 °F 86% 30.40 in 7.0 mi West 6.9 mph - N/A Snow Light Snow
11:53 PM 18.3 °F 7.3 °F 13.1 °F 80% 30.40 in 7.0 mi West 9.2 mph - N/A Snow Light Snow